sensor_id;sensor_type;location;lat;lon;timestamp;P1;durP1;ratioP1;P2;durP2;ratioP2
65613;SDS011;52283;49.292;10.572;2023-01-26T00:00:18;18.52;;;5.88;;
65613;SDS011;52283;49.292;10.572;2023-01-26T00:02:46;21.45;;;8.95;;
65613;SDS011;52283;49.292;10.572;2023-01-26T00:05:13;21.17;;;7.15;;
65613;SDS011;52283;49.292;10.572;2023-01-26T00:07:39;19.48;;;7.40;;
65613;SDS011;52283;49.292;10.572;2023-01-26T00:10:09;16.73;;;6.18;;
65613;SDS011;52283;49.292;10.572;2023-01-26T00:12:36;14.63;;;6.47;;
65613;SDS011;52283;49.292;10.572;2023-01-26T00:15:03;17.80;;;6.93;;
65613;SDS011;52283;49.292;10.572;2023-01-26T00:17:30;20.08;;;7.38;;
65613;SDS011;52283;49.292;10.572;2023-01-26T00:19:57;18.13;;;6.22;;
65613;SDS011;52283;49.292;10.572;2023-01-26T00:22:24;23.02;;;7.72;;
65613;SDS011;52283;49.292;10.572;2023-01-26T00:24:52;21.75;;;7.22;;
65613;SDS011;52283;49.292;10.572;2023-01-26T00:27:18;22.58;;;6.20;;
65613;SDS011;52283;49.292;10.572;2023-01-26T00:29:45;26.90;;;7.47;;
65613;SDS011;52283;49.292;10.572;2023-01-26T00:32:11;16.40;;;6.53;;
65613;SDS011;52283;49.292;10.572;2023-01-26T00:34:38;18.65;;;6.15;;
65613;SDS011;52283;49.292;10.572;2023-01-26T00:37:05;18.65;;;5.97;;
65613;SDS011;52283;49.292;10.572;2023-01-26T00:39:32;18.25;;;6.32;;
65613;SDS011;52283;49.292;10.572;2023-01-26T00:41:58;18.80;;;7.40;;
65613;SDS011;52283;49.292;10.572;2023-01-26T00:44:38;19.20;;;6.05;;
65613;SDS011;52283;49.292;10.572;2023-01-26T00:47:05;19.98;;;6.28;;
65613;SDS011;52283;49.292;10.572;2023-01-26T00:49:33;21.17;;;6.90;;
65613;SDS011;52283;49.292;10.572;2023-01-26T00:52:00;15.93;;;6.13;;
65613;SDS011;52283;49.292;10.572;2023-01-26T00:54:28;20.05;;;6.07;;
65613;SDS011;52283;49.292;10.572;2023-01-26T00:56:56;19.55;;;7.07;;
65613;SDS011;52283;49.292;10.572;2023-01-26T00:59:22;18.67;;;5.95;;
65613;SDS011;52283;49.292;10.572;2023-01-26T01:01:49;21.15;;;6.90;;
65613;SDS011;52283;49.292;10.572;2023-01-26T01:04:17;19.55;;;7.10;;
65613;SDS011;52283;49.292;10.572;2023-01-26T01:06:43;20.95;;;6.90;;
65613;SDS011;52283;49.292;10.572;2023-01-26T01:09:10;24.83;;;7.45;;
65613;SDS011;52283;49.292;10.572;2023-01-26T01:11:39;18.15;;;6.20;;
65613;SDS011;52283;49.292;10.572;2023-01-26T01:14:07;19.75;;;6.28;;
65613;SDS011;52283;49.292;10.572;2023-01-26T01:16:33;18.73;;;6.88;;
65613;SDS011;52283;49.292;10.572;2023-01-26T01:18:59;16.98;;;6.32;;
65613;SDS011;52283;49.292;10.572;2023-01-26T01:21:26;14.32;;;6.38;;
65613;SDS011;52283;49.292;10.572;2023-01-26T01:23:52;19.08;;;5.82;;
65613;SDS011;52283;49.292;10.572;2023-01-26T01:26:19;15.63;;;6.05;;
65613;SDS011;52283;49.292;10.572;2023-01-26T01:28:47;20.08;;;6.95;;
65613;SDS011;52283;49.292;10.572;2023-01-26T01:31:15;16.30;;;5.97;;
65613;SDS011;52283;49.292;10.572;2023-01-26T01:33:41;18.75;;;6.43;;
65613;SDS011;52283;49.292;10.572;2023-01-26T01:36:09;24.63;;;8.07;;
65613;SDS011;52283;49.292;10.572;2023-01-26T01:38:37;15.63;;;5.90;;
65613;SDS011;52283;49.292;10.572;2023-01-26T01:41:03;18.27;;;6.57;;
65613;SDS011;52283;49.292;10.572;2023-01-26T01:43:30;16.05;;;6.30;;
65613;SDS011;52283;49.292;10.572;2023-01-26T01:45:58;16.30;;;6.25;;
65613;SDS011;52283;49.292;10.572;2023-01-26T01:48:26;20.73;;;7.25;;
65613;SDS011;52283;49.292;10.572;2023-01-26T01:50:56;17.95;;;6.65;;
65613;SDS011;52283;49.292;10.572;2023-01-26T01:53:26;21.85;;;6.50;;
65613;SDS011;52283;49.292;10.572;2023-01-26T01:58:25;15.60;;;5.75;;
65613;SDS011;52283;49.292;10.572;2023-01-26T02:00:52;17.13;;;6.07;;
65613;SDS011;52283;49.292;10.572;2023-01-26T02:03:20;19.95;;;5.72;;
65613;SDS011;52283;49.292;10.572;2023-01-26T02:05:50;21.17;;;7.78;;
65613;SDS011;52283;49.292;10.572;2023-01-26T02:08:20;21.38;;;6.82;;
65613;SDS011;52283;49.292;10.572;2023-01-26T02:10:51;15.07;;;5.45;;
65613;SDS011;52283;49.292;10.572;2023-01-26T02:13:20;23.63;;;7.72;;
65613;SDS011;52283;49.292;10.572;2023-01-26T02:15:49;18.63;;;7.20;;
65613;SDS011;52283;49.292;10.572;2023-01-26T02:18:16;22.52;;;5.90;;
65613;SDS011;52283;49.292;10.572;2023-01-26T02:20:44;18.83;;;6.55;;
65613;SDS011;52283;49.292;10.572;2023-01-26T02:23:18;17.88;;;7.15;;
65613;SDS011;52283;49.292;10.572;2023-01-26T02:26:04;18.20;;;7.22;;
65613;SDS011;52283;49.292;10.572;2023-01-26T02:28:33;20.58;;;7.22;;
65613;SDS011;52283;49.292;10.572;2023-01-26T02:30:59;22.25;;;8.70;;
65613;SDS011;52283;49.292;10.572;2023-01-26T02:33:27;23.63;;;7.20;;
65613;SDS011;52283;49.292;10.572;2023-01-26T02:35:55;21.90;;;7.10;;
65613;SDS011;52283;49.292;10.572;2023-01-26T02:38:22;24.65;;;6.85;;
65613;SDS011;52283;49.292;10.572;2023-01-26T02:43:22;26.88;;;8.00;;
65613;SDS011;52283;49.292;10.572;2023-01-26T02:45:50;21.45;;;7.18;;
65613;SDS011;52283;49.292;10.572;2023-01-26T02:48:17;20.13;;;7.28;;
65613;SDS011;52283;49.292;10.572;2023-01-26T02:51:04;19.23;;;7.38;;
65613;SDS011;52283;49.292;10.572;2023-01-26T02:53:30;19.75;;;6.68;;
65613;SDS011;52283;49.292;10.572;2023-01-26T02:55:57;19.52;;;7.47;;
65613;SDS011;52283;49.292;10.572;2023-01-26T02:58:24;17.95;;;4.95;;
65613;SDS011;52283;49.292;10.572;2023-01-26T03:00:50;19.02;;;7.60;;
65613;SDS011;52283;49.292;10.572;2023-01-26T03:03:17;17.25;;;6.32;;
65613;SDS011;52283;49.292;10.572;2023-01-26T03:05:46;20.55;;;6.95;;
65613;SDS011;52283;49.292;10.572;2023-01-26T03:08:13;20.30;;;6.60;;
65613;SDS011;52283;49.292;10.572;2023-01-26T03:10:40;22.90;;;7.35;;
65613;SDS011;52283;49.292;10.572;2023-01-26T03:13:06;22.73;;;6.85;;
65613;SDS011;52283;49.292;10.572;2023-01-26T03:15:34;17.83;;;6.50;;
65613;SDS011;52283;49.292;10.572;2023-01-26T03:18:08;18.60;;;7.47;;
65613;SDS011;52283;49.292;10.572;2023-01-26T03:20:53;20.23;;;8.02;;
65613;SDS011;52283;49.292;10.572;2023-01-26T03:23:37;26.48;;;8.10;;
65613;SDS011;52283;49.292;10.572;2023-01-26T03:26:20;25.80;;;8.07;;
65613;SDS011;52283;49.292;10.572;2023-01-26T03:29:04;18.95;;;7.15;;
65613;SDS011;52283;49.292;10.572;2023-01-26T03:31:32;26.58;;;8.13;;
65613;SDS011;52283;49.292;10.572;2023-01-26T03:33:59;24.40;;;7.97;;
65613;SDS011;52283;49.292;10.572;2023-01-26T03:36:25;21.73;;;7.60;;
65613;SDS011;52283;49.292;10.572;2023-01-26T03:38:52;22.45;;;7.72;;
65613;SDS011;52283;49.292;10.572;2023-01-26T03:41:18;22.33;;;6.70;;
65613;SDS011;52283;49.292;10.572;2023-01-26T03:44:02;26.45;;;8.63;;
65613;SDS011;52283;49.292;10.572;2023-01-26T03:46:48;27.65;;;8.30;;
65613;SDS011;52283;49.292;10.572;2023-01-26T03:49:32;21.02;;;7.45;;
65613;SDS011;52283;49.292;10.572;2023-01-26T03:52:16;27.60;;;8.40;;
65613;SDS011;52283;49.292;10.572;2023-01-26T03:55:00;21.48;;;7.88;;
65613;SDS011;52283;49.292;10.572;2023-01-26T03:57:44;21.48;;;8.25;;
65613;SDS011;52283;49.292;10.572;2023-01-26T04:00:11;27.70;;;8.70;;
65613;SDS011;52283;49.292;10.572;2023-01-26T04:02:40;22.13;;;8.40;;
65613;SDS011;52283;49.292;10.572;2023-01-26T04:05:25;28.58;;;8.48;;
65613;SDS011;52283;49.292;10.572;2023-01-26T04:08:09;26.63;;;8.68;;
65613;SDS011;52283;49.292;10.572;2023-01-26T04:10:48;24.08;;;7.70;;
65613;SDS011;52283;49.292;10.572;2023-01-26T04:13:15;19.90;;;6.78;;
65613;SDS011;52283;49.292;10.572;2023-01-26T04:15:59;22.73;;;7.65;;
65613;SDS011;52283;49.292;10.572;2023-01-26T04:18:45;22.67;;;8.50;;
65613;SDS011;52283;49.292;10.572;2023-01-26T04:21:29;22.70;;;8.27;;
65613;SDS011;52283;49.292;10.572;2023-01-26T04:23:57;24.48;;;6.47;;
65613;SDS011;52283;49.292;10.572;2023-01-26T04:26:24;18.40;;;7.28;;
65613;SDS011;52283;49.292;10.572;2023-01-26T04:28:58;24.60;;;6.65;;
65613;SDS011;52283;49.292;10.572;2023-01-26T04:31:25;27.70;;;7.95;;
65613;SDS011;52283;49.292;10.572;2023-01-26T04:33:53;23.67;;;7.03;;
65613;SDS011;52283;49.292;10.572;2023-01-26T04:36:20;23.30;;;8.43;;
65613;SDS011;52283;49.292;10.572;2023-01-26T04:38:46;25.05;;;7.93;;
65613;SDS011;52283;49.292;10.572;2023-01-26T04:41:13;30.05;;;9.27;;
65613;SDS011;52283;49.292;10.572;2023-01-26T04:43:40;25.40;;;7.95;;
65613;SDS011;52283;49.292;10.572;2023-01-26T04:46:06;25.58;;;7.40;;
65613;SDS011;52283;49.292;10.572;2023-01-26T04:48:33;27.48;;;7.70;;
65613;SDS011;52283;49.292;10.572;2023-01-26T04:51:02;22.88;;;7.93;;
65613;SDS011;52283;49.292;10.572;2023-01-26T04:53:30;26.17;;;8.98;;
65613;SDS011;52283;49.292;10.572;2023-01-26T04:55:57;22.77;;;6.90;;
65613;SDS011;52283;49.292;10.572;2023-01-26T04:58:24;19.13;;;7.05;;
65613;SDS011;52283;49.292;10.572;2023-01-26T05:00:51;20.77;;;7.32;;
65613;SDS011;52283;49.292;10.572;2023-01-26T05:03:18;19.48;;;7.35;;
65613;SDS011;52283;49.292;10.572;2023-01-26T05:05:46;23.55;;;7.05;;
65613;SDS011;52283;49.292;10.572;2023-01-26T05:08:15;26.90;;;7.72;;
65613;SDS011;52283;49.292;10.572;2023-01-26T05:10:41;15.45;;;6.25;;
65613;SDS011;52283;49.292;10.572;2023-01-26T05:13:08;16.13;;;6.25;;
65613;SDS011;52283;49.292;10.572;2023-01-26T05:15:34;14.65;;;4.85;;
65613;SDS011;52283;49.292;10.572;2023-01-26T05:18:02;17.50;;;5.28;;
65613;SDS011;52283;49.292;10.572;2023-01-26T05:20:29;17.05;;;5.20;;
65613;SDS011;52283;49.292;10.572;2023-01-26T05:22:56;16.08;;;5.45;;
65613;SDS011;52283;49.292;10.572;2023-01-26T05:25:24;19.33;;;6.78;;
65613;SDS011;52283;49.292;10.572;2023-01-26T05:27:51;19.85;;;6.18;;
65613;SDS011;52283;49.292;10.572;2023-01-26T05:30:17;23.40;;;6.80;;
65613;SDS011;52283;49.292;10.572;2023-01-26T05:32:44;21.30;;;7.78;;
65613;SDS011;52283;49.292;10.572;2023-01-26T05:35:11;24.50;;;8.43;;
65613;SDS011;52283;49.292;10.572;2023-01-26T05:37:37;21.95;;;7.55;;
65613;SDS011;52283;49.292;10.572;2023-01-26T05:40:06;18.73;;;7.63;;
65613;SDS011;52283;49.292;10.572;2023-01-26T05:42:35;20.52;;;6.68;;
65613;SDS011;52283;49.292;10.572;2023-01-26T05:45:01;16.35;;;5.57;;
65613;SDS011;52283;49.292;10.572;2023-01-26T05:47:28;23.40;;;6.78;;
65613;SDS011;52283;49.292;10.572;2023-01-26T05:49:54;16.38;;;5.82;;
65613;SDS011;52283;49.292;10.572;2023-01-26T05:52:21;18.08;;;5.40;;
65613;SDS011;52283;49.292;10.572;2023-01-26T05:54:47;11.07;;;5.20;;
65613;SDS011;52283;49.292;10.572;2023-01-26T05:57:14;19.27;;;6.63;;
65613;SDS011;52283;49.292;10.572;2023-01-26T05:59:43;20.65;;;6.90;;
65613;SDS011;52283;49.292;10.572;2023-01-26T06:02:10;17.92;;;5.85;;
65613;SDS011;52283;49.292;10.572;2023-01-26T06:04:37;17.83;;;7.35;;
65613;SDS011;52283;49.292;10.572;2023-01-26T06:07:03;15.02;;;5.88;;
65613;SDS011;52283;49.292;10.572;2023-01-26T06:09:30;15.80;;;4.93;;
65613;SDS011;52283;49.292;10.572;2023-01-26T06:11:56;12.88;;;6.18;;
65613;SDS011;52283;49.292;10.572;2023-01-26T06:14:23;15.75;;;5.80;;
65613;SDS011;52283;49.292;10.572;2023-01-26T06:16:51;14.73;;;5.60;;
65613;SDS011;52283;49.292;10.572;2023-01-26T06:19:18;12.52;;;5.20;;
65613;SDS011;52283;49.292;10.572;2023-01-26T06:21:45;16.70;;;5.65;;
65613;SDS011;52283;49.292;10.572;2023-01-26T06:24:11;15.48;;;5.15;;
65613;SDS011;52283;49.292;10.572;2023-01-26T06:26:38;12.98;;;5.07;;
65613;SDS011;52283;49.292;10.572;2023-01-26T06:29:05;14.77;;;4.55;;
65613;SDS011;52283;49.292;10.572;2023-01-26T06:31:34;12.48;;;4.15;;
65613;SDS011;52283;49.292;10.572;2023-01-26T06:34:02;13.93;;;5.00;;
65613;SDS011;52283;49.292;10.572;2023-01-26T06:36:29;13.13;;;5.28;;
65613;SDS011;52283;49.292;10.572;2023-01-26T06:38:56;14.98;;;4.88;;
65613;SDS011;52283;49.292;10.572;2023-01-26T06:41:22;15.18;;;4.55;;
65613;SDS011;52283;49.292;10.572;2023-01-26T06:43:49;17.42;;;5.32;;
65613;SDS011;52283;49.292;10.572;2023-01-26T06:46:15;12.73;;;4.40;;
65613;SDS011;52283;49.292;10.572;2023-01-26T06:48:43;13.60;;;5.22;;
65613;SDS011;52283;49.292;10.572;2023-01-26T06:54:26;14.27;;;5.03;;
65613;SDS011;52283;49.292;10.572;2023-01-26T06:56:52;13.23;;;4.70;;
65613;SDS011;52283;49.292;10.572;2023-01-26T06:59:19;14.20;;;4.60;;
65613;SDS011;52283;49.292;10.572;2023-01-26T07:01:46;17.35;;;5.32;;
65613;SDS011;52283;49.292;10.572;2023-01-26T07:04:13;10.80;;;5.43;;
65613;SDS011;52283;49.292;10.572;2023-01-26T07:06:40;13.50;;;4.65;;
65613;SDS011;52283;49.292;10.572;2023-01-26T07:09:07;11.90;;;4.40;;
65613;SDS011;52283;49.292;10.572;2023-01-26T07:11:35;16.20;;;4.63;;
65613;SDS011;52283;49.292;10.572;2023-01-26T07:14:02;15.15;;;5.25;;
65613;SDS011;52283;49.292;10.572;2023-01-26T07:16:28;12.60;;;4.78;;
65613;SDS011;52283;49.292;10.572;2023-01-26T07:18:55;15.70;;;5.20;;
65613;SDS011;52283;49.292;10.572;2023-01-26T07:21:21;17.17;;;5.93;;
65613;SDS011;52283;49.292;10.572;2023-01-26T07:23:48;16.85;;;6.47;;
65613;SDS011;52283;49.292;10.572;2023-01-26T07:26:17;20.52;;;6.22;;
65613;SDS011;52283;49.292;10.572;2023-01-26T07:28:45;17.00;;;6.30;;
65613;SDS011;52283;49.292;10.572;2023-01-26T07:31:12;18.00;;;5.55;;
65613;SDS011;52283;49.292;10.572;2023-01-26T07:33:39;12.60;;;5.00;;
65613;SDS011;52283;49.292;10.572;2023-01-26T07:36:05;19.38;;;6.28;;
65613;SDS011;52283;49.292;10.572;2023-01-26T07:38:32;13.30;;;5.88;;
65613;SDS011;52283;49.292;10.572;2023-01-26T07:41:03;17.55;;;6.88;;
65613;SDS011;52283;49.292;10.572;2023-01-26T07:43:31;18.02;;;6.28;;
65613;SDS011;52283;49.292;10.572;2023-01-26T07:46:00;14.25;;;6.15;;
65613;SDS011;52283;49.292;10.572;2023-01-26T07:48:26;18.80;;;6.53;;
65613;SDS011;52283;49.292;10.572;2023-01-26T07:50:56;20.25;;;6.80;;
65613;SDS011;52283;49.292;10.572;2023-01-26T07:53:23;16.65;;;6.82;;
65613;SDS011;52283;49.292;10.572;2023-01-26T07:55:51;17.38;;;5.88;;
65613;SDS011;52283;49.292;10.572;2023-01-26T07:58:18;15.73;;;6.07;;
65613;SDS011;52283;49.292;10.572;2023-01-26T08:00:45;16.58;;;6.15;;
65613;SDS011;52283;49.292;10.572;2023-01-26T08:03:13;16.23;;;5.45;;
65613;SDS011;52283;49.292;10.572;2023-01-26T08:05:39;18.00;;;7.03;;
65613;SDS011;52283;49.292;10.572;2023-01-26T08:08:07;13.18;;;5.50;;
65613;SDS011;52283;49.292;10.572;2023-01-26T08:10:33;14.07;;;4.90;;
65613;SDS011;52283;49.292;10.572;2023-01-26T08:13:00;21.77;;;6.47;;
65613;SDS011;52283;49.292;10.572;2023-01-26T08:15:27;17.35;;;6.38;;
65613;SDS011;52283;49.292;10.572;2023-01-26T08:17:54;19.08;;;7.35;;
65613;SDS011;52283;49.292;10.572;2023-01-26T08:20:22;20.90;;;6.25;;
65613;SDS011;52283;49.292;10.572;2023-01-26T08:22:48;17.85;;;6.32;;
65613;SDS011;52283;49.292;10.572;2023-01-26T08:25:15;22.40;;;7.70;;
65613;SDS011;52283;49.292;10.572;2023-01-26T08:27:41;18.42;;;6.68;;
65613;SDS011;52283;49.292;10.572;2023-01-26T08:30:08;20.75;;;5.88;;
65613;SDS011;52283;49.292;10.572;2023-01-26T08:32:35;18.15;;;6.40;;
65613;SDS011;52283;49.292;10.572;2023-01-26T08:35:02;17.77;;;6.10;;
65613;SDS011;52283;49.292;10.572;2023-01-26T08:37:30;25.27;;;8.25;;
65613;SDS011;52283;49.292;10.572;2023-01-26T08:39:57;20.73;;;6.32;;
65613;SDS011;52283;49.292;10.572;2023-01-26T08:42:23;17.40;;;6.13;;
65613;SDS011;52283;49.292;10.572;2023-01-26T08:44:50;13.55;;;5.07;;
65613;SDS011;52283;49.292;10.572;2023-01-26T08:47:17;16.20;;;6.03;;
65613;SDS011;52283;49.292;10.572;2023-01-26T08:49:43;19.38;;;6.88;;
65613;SDS011;52283;49.292;10.572;2023-01-26T08:52:10;16.33;;;6.13;;
65613;SDS011;52283;49.292;10.572;2023-01-26T08:54:38;15.48;;;6.80;;
65613;SDS011;52283;49.292;10.572;2023-01-26T08:57:04;17.75;;;5.72;;
65613;SDS011;52283;49.292;10.572;2023-01-26T08:59:31;20.30;;;8.20;;
65613;SDS011;52283;49.292;10.572;2023-01-26T09:01:57;26.17;;;7.65;;
65613;SDS011;52283;49.292;10.572;2023-01-26T09:04:24;22.65;;;7.95;;
65613;SDS011;52283;49.292;10.572;2023-01-26T09:06:51;17.02;;;6.10;;
65613;SDS011;52283;49.292;10.572;2023-01-26T09:09:17;15.70;;;7.13;;
65613;SDS011;52283;49.292;10.572;2023-01-26T09:11:45;20.63;;;6.85;;
65613;SDS011;52283;49.292;10.572;2023-01-26T09:14:12;18.23;;;5.88;;
65613;SDS011;52283;49.292;10.572;2023-01-26T09:16:38;21.52;;;6.72;;
65613;SDS011;52283;49.292;10.572;2023-01-26T09:19:04;17.00;;;6.15;;
65613;SDS011;52283;49.292;10.572;2023-01-26T09:21:31;15.02;;;6.10;;
65613;SDS011;52283;49.292;10.572;2023-01-26T09:23:57;13.57;;;5.07;;
65613;SDS011;52283;49.292;10.572;2023-01-26T09:26:24;13.77;;;5.10;;
65613;SDS011;52283;49.292;10.572;2023-01-26T09:28:52;15.38;;;5.82;;
65613;SDS011;52283;49.292;10.572;2023-01-26T09:31:18;15.80;;;5.82;;
65613;SDS011;52283;49.292;10.572;2023-01-26T09:33:45;19.08;;;6.93;;
65613;SDS011;52283;49.292;10.572;2023-01-26T09:36:13;16.40;;;5.72;;
65613;SDS011;52283;49.292;10.572;2023-01-26T09:38:39;20.33;;;6.80;;
65613;SDS011;52283;49.292;10.572;2023-01-26T09:41:06;19.25;;;7.10;;
65613;SDS011;52283;49.292;10.572;2023-01-26T09:43:44;21.83;;;7.07;;
65613;SDS011;52283;49.292;10.572;2023-01-26T09:46:19;23.80;;;6.60;;
65613;SDS011;52283;49.292;10.572;2023-01-26T09:48:48;16.58;;;6.57;;
65613;SDS011;52283;49.292;10.572;2023-01-26T09:51:25;18.60;;;6.60;;
65613;SDS011;52283;49.292;10.572;2023-01-26T09:53:59;19.83;;;6.90;;
65613;SDS011;52283;49.292;10.572;2023-01-26T09:56:29;23.88;;;6.10;;
65613;SDS011;52283;49.292;10.572;2023-01-26T09:58:58;20.85;;;5.95;;
65613;SDS011;52283;49.292;10.572;2023-01-26T10:01:33;27.35;;;10.20;;
65613;SDS011;52283;49.292;10.572;2023-01-26T10:04:09;30.63;;;12.55;;
65613;SDS011;52283;49.292;10.572;2023-01-26T10:06:42;18.30;;;7.30;;
65613;SDS011;52283;49.292;10.572;2023-01-26T10:09:11;16.95;;;6.00;;
65613;SDS011;52283;49.292;10.572;2023-01-26T10:11:42;21.95;;;6.38;;
65613;SDS011;52283;49.292;10.572;2023-01-26T10:14:12;19.42;;;6.13;;
65613;SDS011;52283;49.292;10.572;2023-01-26T10:16:42;16.77;;;5.45;;
65613;SDS011;52283;49.292;10.572;2023-01-26T10:19:12;16.40;;;5.88;;
65613;SDS011;52283;49.292;10.572;2023-01-26T10:21:46;14.93;;;4.82;;
65613;SDS011;52283;49.292;10.572;2023-01-26T10:24:16;19.75;;;6.10;;
65613;SDS011;52283;49.292;10.572;2023-01-26T10:26:47;17.38;;;5.50;;
65613;SDS011;52283;49.292;10.572;2023-01-26T10:29:15;16.58;;;5.18;;
65613;SDS011;52283;49.292;10.572;2023-01-26T10:31:43;20.35;;;7.05;;
65613;SDS011;52283;49.292;10.572;2023-01-26T10:34:12;16.98;;;5.68;;
65613;SDS011;52283;49.292;10.572;2023-01-26T10:36:40;18.65;;;6.15;;
65613;SDS011;52283;49.292;10.572;2023-01-26T10:39:10;11.82;;;4.45;;
65613;SDS011;52283;49.292;10.572;2023-01-26T10:41:38;16.90;;;5.25;;
65613;SDS011;52283;49.292;10.572;2023-01-26T10:44:19;19.27;;;5.90;;
65613;SDS011;52283;49.292;10.572;2023-01-26T10:47:02;20.50;;;7.97;;
65613;SDS011;52283;49.292;10.572;2023-01-26T10:49:38;16.70;;;5.68;;
65613;SDS011;52283;49.292;10.572;2023-01-26T10:52:06;14.88;;;6.32;;
65613;SDS011;52283;49.292;10.572;2023-01-26T10:54:39;24.67;;;7.53;;
65613;SDS011;52283;49.292;10.572;2023-01-26T10:57:12;59.67;;;17.60;;
65613;SDS011;52283;49.292;10.572;2023-01-26T10:59:42;27.10;;;9.38;;
65613;SDS011;52283;49.292;10.572;2023-01-26T11:02:22;28.90;;;8.52;;
65613;SDS011;52283;49.292;10.572;2023-01-26T11:05:02;28.10;;;9.60;;
65613;SDS011;52283;49.292;10.572;2023-01-26T11:07:40;27.60;;;10.18;;
65613;SDS011;52283;49.292;10.572;2023-01-26T11:10:19;28.55;;;9.60;;
65613;SDS011;52283;49.292;10.572;2023-01-26T11:12:48;34.58;;;10.43;;
65613;SDS011;52283;49.292;10.572;2023-01-26T11:15:16;72.18;;;20.73;;
65613;SDS011;52283;49.292;10.572;2023-01-26T11:17:47;32.17;;;10.15;;
65613;SDS011;52283;49.292;10.572;2023-01-26T11:20:35;34.22;;;10.65;;
65613;SDS011;52283;49.292;10.572;2023-01-26T11:23:11;36.92;;;12.27;;
65613;SDS011;52283;49.292;10.572;2023-01-26T11:25:44;33.90;;;10.82;;
65613;SDS011;52283;49.292;10.572;2023-01-26T11:28:23;40.58;;;11.88;;
65613;SDS011;52283;49.292;10.572;2023-01-26T11:31:05;48.00;;;12.20;;
65613;SDS011;52283;49.292;10.572;2023-01-26T11:33:44;33.65;;;12.27;;
65613;SDS011;52283;49.292;10.572;2023-01-26T11:36:26;38.17;;;10.52;;
65613;SDS011;52283;49.292;10.572;2023-01-26T11:39:00;42.70;;;13.00;;
65613;SDS011;52283;49.292;10.572;2023-01-26T11:41:40;40.65;;;12.02;;
65613;SDS011;52283;49.292;10.572;2023-01-26T11:44:20;38.63;;;12.35;;
65613;SDS011;52283;49.292;10.572;2023-01-26T11:50:02;48.40;;;14.98;;
65613;SDS011;52283;49.292;10.572;2023-01-26T11:52:45;46.47;;;14.43;;
65613;SDS011;52283;49.292;10.572;2023-01-26T11:55:22;50.95;;;13.93;;
65613;SDS011;52283;49.292;10.572;2023-01-26T12:00:48;46.67;;;14.45;;
65613;SDS011;52283;49.292;10.572;2023-01-26T12:03:19;50.03;;;14.40;;
65613;SDS011;52283;49.292;10.572;2023-01-26T12:05:52;52.03;;;14.52;;
65613;SDS011;52283;49.292;10.572;2023-01-26T12:08:22;49.83;;;13.70;;
65613;SDS011;52283;49.292;10.572;2023-01-26T12:10:57;50.58;;;14.40;;
65613;SDS011;52283;49.292;10.572;2023-01-26T12:13:46;50.20;;;15.05;;
65613;SDS011;52283;49.292;10.572;2023-01-26T12:16:30;31.77;;;10.23;;
65613;SDS011;52283;49.292;10.572;2023-01-26T12:19:05;41.17;;;11.85;;
65613;SDS011;52283;49.292;10.572;2023-01-26T12:21:41;45.80;;;13.88;;
65613;SDS011;52283;49.292;10.572;2023-01-26T12:24:11;53.92;;;14.65;;
65613;SDS011;52283;49.292;10.572;2023-01-26T12:26:46;48.67;;;12.52;;
65613;SDS011;52283;49.292;10.572;2023-01-26T12:29:16;43.80;;;11.73;;
65613;SDS011;52283;49.292;10.572;2023-01-26T12:31:51;40.13;;;10.13;;
65613;SDS011;52283;49.292;10.572;2023-01-26T12:34:23;39.67;;;11.30;;
65613;SDS011;52283;49.292;10.572;2023-01-26T12:36:54;36.13;;;10.93;;
65613;SDS011;52283;49.292;10.572;2023-01-26T12:39:32;30.17;;;11.15;;
65613;SDS011;52283;49.292;10.572;2023-01-26T12:44:45;39.83;;;10.55;;
65613;SDS011;52283;49.292;10.572;2023-01-26T12:47:19;41.10;;;13.40;;
65613;SDS011;52283;49.292;10.572;2023-01-26T12:49:54;40.17;;;13.65;;
65613;SDS011;52283;49.292;10.572;2023-01-26T12:52:27;51.33;;;14.35;;
65613;SDS011;52283;49.292;10.572;2023-01-26T12:55:01;38.28;;;12.55;;
65613;SDS011;52283;49.292;10.572;2023-01-26T12:57:36;44.10;;;12.93;;
65613;SDS011;52283;49.292;10.572;2023-01-26T13:00:05;43.87;;;13.30;;
65613;SDS011;52283;49.292;10.572;2023-01-26T13:02:44;35.60;;;12.38;;
65613;SDS011;52283;49.292;10.572;2023-01-26T13:05:20;31.63;;;10.57;;
65613;SDS011;52283;49.292;10.572;2023-01-26T13:07:51;32.28;;;12.75;;
65613;SDS011;52283;49.292;10.572;2023-01-26T13:10:20;37.90;;;11.70;;
65613;SDS011;52283;49.292;10.572;2023-01-26T13:12:49;40.42;;;12.38;;
65613;SDS011;52283;49.292;10.572;2023-01-26T13:15:17;36.50;;;11.73;;
65613;SDS011;52283;49.292;10.572;2023-01-26T13:17:54;28.92;;;10.82;;
65613;SDS011;52283;49.292;10.572;2023-01-26T13:29:33;43.08;;;14.13;;
65613;SDS011;52283;49.292;10.572;2023-01-26T13:32:01;31.85;;;11.13;;
65613;SDS011;52283;49.292;10.572;2023-01-26T13:35:06;37.78;;;12.32;;
65613;SDS011;52283;49.292;10.572;2023-01-26T13:37:40;34.70;;;10.10;;
65613;SDS011;52283;49.292;10.572;2023-01-26T13:40:16;40.45;;;12.35;;
65613;SDS011;52283;49.292;10.572;2023-01-26T13:42:48;29.98;;;10.55;;
65613;SDS011;52283;49.292;10.572;2023-01-26T13:45:21;33.58;;;10.93;;
65613;SDS011;52283;49.292;10.572;2023-01-26T13:47:53;32.75;;;11.23;;
65613;SDS011;52283;49.292;10.572;2023-01-26T13:50:29;38.17;;;12.13;;
65613;SDS011;52283;49.292;10.572;2023-01-26T13:52:57;47.08;;;13.75;;
65613;SDS011;52283;49.292;10.572;2023-01-26T13:55:25;37.25;;;11.20;;
65613;SDS011;52283;49.292;10.572;2023-01-26T14:00:55;37.28;;;11.27;;
65613;SDS011;52283;49.292;10.572;2023-01-26T14:03:22;37.65;;;10.48;;
65613;SDS011;52283;49.292;10.572;2023-01-26T14:05:51;36.90;;;12.38;;
65613;SDS011;52283;49.292;10.572;2023-01-26T14:10:47;26.42;;;8.38;;
65613;SDS011;52283;49.292;10.572;2023-01-26T14:13:15;31.50;;;9.93;;
65613;SDS011;52283;49.292;10.572;2023-01-26T14:15:54;30.98;;;10.23;;
65613;SDS011;52283;49.292;10.572;2023-01-26T14:18:22;35.08;;;11.50;;
65613;SDS011;52283;49.292;10.572;2023-01-26T14:20:48;38.53;;;14.30;;
65613;SDS011;52283;49.292;10.572;2023-01-26T14:23:17;33.97;;;10.55;;
65613;SDS011;52283;49.292;10.572;2023-01-26T14:25:45;37.40;;;11.98;;
65613;SDS011;52283;49.292;10.572;2023-01-26T14:28:21;31.52;;;10.90;;
65613;SDS011;52283;49.292;10.572;2023-01-26T14:30:51;34.60;;;10.88;;
65613;SDS011;52283;49.292;10.572;2023-01-26T14:35:53;36.97;;;11.23;;
65613;SDS011;52283;49.292;10.572;2023-01-26T14:38:23;42.95;;;12.20;;
65613;SDS011;52283;49.292;10.572;2023-01-26T14:40:52;32.95;;;10.68;;
65613;SDS011;52283;49.292;10.572;2023-01-26T14:43:20;32.47;;;10.68;;
65613;SDS011;52283;49.292;10.572;2023-01-26T14:45:48;37.30;;;11.00;;
65613;SDS011;52283;49.292;10.572;2023-01-26T14:50:47;40.60;;;11.43;;
65613;SDS011;52283;49.292;10.572;2023-01-26T14:53:15;27.33;;;9.02;;
65613;SDS011;52283;49.292;10.572;2023-01-26T14:55:45;37.38;;;11.25;;
65613;SDS011;52283;49.292;10.572;2023-01-26T14:58:13;34.00;;;11.95;;
65613;SDS011;52283;49.292;10.572;2023-01-26T15:00:46;40.40;;;11.80;;
65613;SDS011;52283;49.292;10.572;2023-01-26T15:03:14;41.15;;;12.48;;
65613;SDS011;52283;49.292;10.572;2023-01-26T15:05:47;36.15;;;10.60;;
65613;SDS011;52283;49.292;10.572;2023-01-26T15:08:17;41.08;;;11.73;;
65613;SDS011;52283;49.292;10.572;2023-01-26T15:10:53;34.78;;;11.05;;